createdAt,value
2022-09-20T00:01:32.410Z,95984.88
2022-09-20T00:04:06.900Z,95986.75
2022-09-20T00:06:36.819Z,95987.78
2022-09-20T00:09:06.509Z,95990.47
2022-09-20T00:11:37.970Z,95978.13
2022-09-20T00:14:09.330Z,95985.81
2022-09-20T00:16:42.509Z,95979.53
2022-09-20T00:19:19.288Z,95983.59
2022-09-20T00:21:49.071Z,95981.25
2022-09-20T00:24:19.108Z,95990.81
2022-09-20T00:26:49.848Z,95990.22
2022-09-20T00:29:19.294Z,95989.09
2022-09-20T00:31:48.670Z,95991.41
2022-09-20T00:34:35.428Z,95982.56
2022-09-20T00:37:05.188Z,95979.09
2022-09-20T00:39:34.580Z,95978.03
2022-09-20T00:42:05.915Z,95982.09
2022-09-20T00:44:58.311Z,95978.59
2022-09-20T00:47:39.765Z,95977.66
2022-09-20T00:50:34.798Z,95988.84
2022-09-20T00:53:11.229Z,95983.69
2022-09-20T00:55:47.284Z,95990.72
2022-09-20T00:58:20.319Z,95986.94
2022-09-20T01:00:52.706Z,95974.59
2022-09-20T01:03:23.818Z,95982.38
2022-09-20T01:05:54.550Z,95975.31
2022-09-20T01:08:25.375Z,95978.22
2022-09-20T01:10:55.152Z,95966.38
2022-09-20T01:13:26.981Z,95964.50
2022-09-20T01:16:00.393Z,95968.69
2022-09-20T01:18:31.626Z,95963.91
2022-09-20T01:21:02.800Z,95967.06
2022-09-20T01:23:57.629Z,95959.53
2022-09-20T01:26:58.017Z,95946.72
2022-09-20T01:30:00.177Z,95957.66
2022-09-20T01:32:59.476Z,95957.91
2022-09-20T01:35:30.091Z,95953.34
2022-09-20T01:38:24.942Z,95948.81
2022-09-20T01:41:06.000Z,95942.31
2022-09-20T01:43:42.489Z,95950.34
2022-09-20T01:46:31.054Z,95954.56
2022-09-20T01:49:22.024Z,95943.06
2022-09-20T01:52:41.401Z,95951.09
2022-09-20T01:56:19.605Z,95938.75
2022-09-20T01:59:24.867Z,95939.31
2022-09-20T02:02:33.997Z,95943.06
2022-09-20T02:05:35.701Z,95946.34
2022-09-20T02:08:41.415Z,95944.03
2022-09-20T02:11:17.557Z,95947.53
2022-09-20T02:14:30.109Z,95939.72
2022-09-20T02:17:14.493Z,95931.56
2022-09-20T02:20:03.018Z,95933.91
2022-09-20T02:23:07.844Z,95941.22
2022-09-20T02:26:17.010Z,95934.38
2022-09-20T02:28:57.778Z,95934.84
2022-09-20T02:32:10.505Z,95936.41
2022-09-20T02:35:21.353Z,95932.56
2022-09-20T02:38:18.496Z,95947.94
2022-09-20T02:41:18.184Z,95942.88
2022-09-20T02:44:01.043Z,95948.16
2022-09-20T02:46:42.065Z,95942.47
2022-09-20T02:49:27.846Z,95946.91
2022-09-20T02:52:07.248Z,95942.84
2022-09-20T02:54:51.676Z,95945.03
2022-09-20T02:57:33.612Z,95943.75
2022-09-20T03:00:07.734Z,95936.78
2022-09-20T03:02:52.030Z,95943.41
2022-09-20T03:05:30.816Z,95935.28
2022-09-20T03:08:29.076Z,95942.16
2022-09-20T03:11:13.496Z,95938.41
2022-09-20T03:14:09.809Z,95941.44
2022-09-20T03:16:59.129Z,95938.19
2022-09-20T03:19:47.901Z,95944.13
2022-09-20T03:22:35.584Z,95947.72
2022-09-20T03:25:58.546Z,95942.84
2022-09-20T03:28:54.848Z,95950.31
2022-09-20T03:31:48.534Z,95945.22
2022-09-20T03:34:36.556Z,95941.16
2022-09-20T03:37:34.162Z,95944.28
2022-09-20T03:41:12.474Z,95944.41
2022-09-20T03:44:14.921Z,95950.69
2022-09-20T03:46:48.829Z,95949.53
2022-09-20T03:49:57.469Z,95954.31
2022-09-20T03:53:02.512Z,95955.34
2022-09-20T03:56:13.077Z,95949.31
2022-09-20T03:59:15.496Z,95951.97
2022-09-20T04:02:20.925Z,95952.78
2022-09-20T04:04:56.757Z,95957.69
2022-09-20T04:07:41.399Z,95951.28
2022-09-20T04:10:44.421Z,95951.03
2022-09-20T04:13:37.616Z,95953.84
2022-09-20T04:16:24.464Z,95956.88
2022-09-20T04:18:59.753Z,95953.03
2022-09-20T04:21:38.893Z,95959.19
2022-09-20T04:24:21.992Z,95959.19
2022-09-20T04:26:58.309Z,95960.81
2022-09-20T04:29:40.873Z,95965.94
2022-09-20T04:32:21.090Z,95966.84
2022-09-20T04:35:20.610Z,95964.88
2022-09-20T04:37:52.022Z,95966.97
2022-09-20T04:40:48.793Z,95972.56
2022-09-20T04:44:02.160Z,95969.06
2022-09-20T04:47:06.845Z,95969.31
2022-09-20T04:50:56.365Z,95971.16
2022-09-20T04:53:57.160Z,95972.47
2022-09-20T04:56:48.713Z,95977.31
2022-09-20T04:59:32.375Z,95978.38
2022-09-20T05:03:19.316Z,95969.53
2022-09-20T05:06:19.442Z,95972.47
2022-09-20T05:09:30.042Z,95972.72
2022-09-20T05:12:58.437Z,95970.84
2022-09-20T05:15:43.372Z,95977.56
2022-09-20T05:19:09.005Z,95972.22
2022-09-20T05:22:05.273Z,95970.94
2022-09-20T05:25:23.296Z,95981.63
2022-09-20T05:28:02.852Z,95980.59
2022-09-20T05:30:42.056Z,95979.66
2022-09-20T05:33:23.669Z,95983.84
2022-09-20T05:36:08.223Z,95986.38
2022-09-20T05:38:49.832Z,95987.44
2022-09-20T05:41:33.048Z,95989.66
2022-09-20T05:44:15.556Z,95986.00
2022-09-20T05:47:01.276Z,95984.16
2022-09-20T05:49:53.293Z,95987.41
2022-09-20T05:52:49.396Z,95990.19
2022-09-20T05:55:52.759Z,95991.59
2022-09-20T05:58:46.197Z,95997.03
2022-09-20T06:01:25.307Z,96004.59
2022-09-20T06:04:08.118Z,95999.00
2022-09-20T06:06:56.190Z,96009.81
2022-09-20T06:10:01.285Z,96011.78
2022-09-20T06:12:52.844Z,96015.38
2022-09-20T06:15:35.562Z,96013.63
2022-09-20T06:18:26.876Z,96013.72
2022-09-20T06:21:15.013Z,96012.44
2022-09-20T06:23:45.806Z,96014.38
2022-09-20T06:26:20.969Z,96011.78
2022-09-20T06:28:58.443Z,96013.19
2022-09-20T06:31:28.659Z,96014.34
2022-09-20T06:34:04.805Z,96004.06
2022-09-20T06:36:54.752Z,96024.19
2022-09-20T06:39:56.316Z,96021.34
2022-09-20T06:42:27.522Z,96015.72
2022-09-20T06:44:57.256Z,96021.66
2022-09-20T06:47:27.176Z,96019.88
2022-09-20T06:49:56.560Z,96012.38
2022-09-20T06:52:26.054Z,96026.53
2022-09-20T06:54:57.773Z,96024.91
2022-09-20T06:57:36.904Z,96022.56
2022-09-20T07:00:11.520Z,96020.22
2022-09-20T07:02:40.917Z,96030.69
2022-09-20T07:05:16.536Z,96019.72
2022-09-20T07:07:47.456Z,96028.34
2022-09-20T07:10:18.216Z,96031.03
2022-09-20T07:12:47.693Z,96036.69
2022-09-20T07:15:17.294Z,96036.38
2022-09-20T07:17:48.900Z,96036.63
2022-09-20T07:20:21.562Z,96045.72
2022-09-20T07:22:51.301Z,96051.31
2022-09-20T07:25:22.616Z,96055.88
2022-09-20T07:27:52.466Z,96056.03
2022-09-20T07:30:22.593Z,96060.81
2022-09-20T07:32:52.040Z,96051.53
2022-09-20T07:35:21.432Z,96051.84
2022-09-20T07:37:57.535Z,96050.13
2022-09-20T07:40:28.433Z,96049.00
2022-09-20T07:42:58.590Z,96051.47
2022-09-20T07:45:28.054Z,96050.13
2022-09-20T07:47:59.471Z,96052.56
2022-09-20T07:50:28.866Z,96052.81
2022-09-20T07:52:58.681Z,96045.59
2022-09-20T07:55:29.433Z,96053.97
2022-09-20T07:57:58.890Z,96050.56
2022-09-20T08:00:28.299Z,96056.34
2022-09-20T08:03:01.098Z,96059.47
2022-09-20T08:05:31.780Z,96063.69
2022-09-20T08:08:01.153Z,96060.31
2022-09-20T08:10:32.742Z,96054.78
2022-09-20T08:15:51.484Z,96061.53
2022-09-20T08:18:21.284Z,96065.19
2022-09-20T08:20:50.893Z,96058.41
2022-09-20T08:23:23.827Z,96061.44
2022-09-20T08:25:57.672Z,96061.72
2022-09-20T08:28:27.085Z,96070.03
2022-09-20T08:31:03.935Z,96065.84
2022-09-20T08:33:36.418Z,96068.84
2022-09-20T08:36:06.735Z,96071.53
2022-09-20T08:41:32.156Z,96071.34
2022-09-20T08:44:08.744Z,96074.78
2022-09-20T08:46:44.948Z,96071.41
2022-09-20T08:49:26.823Z,96062.84
2022-09-20T08:51:58.125Z,96065.88
2022-09-20T08:54:32.293Z,96066.44
2022-09-20T08:57:07.780Z,96074.41
2022-09-20T08:59:37.118Z,96068.81
2022-09-20T09:02:17.984Z,96074.19
2022-09-20T09:04:49.943Z,96075.66
2022-09-20T09:07:22.065Z,96073.88
2022-09-20T09:09:56.080Z,96078.06
2022-09-20T09:12:32.121Z,96078.09
2022-09-20T09:15:22.986Z,96080.03
2022-09-20T09:17:52.331Z,96080.53
2022-09-20T09:20:24.768Z,96082.88
2022-09-20T09:23:04.130Z,96079.59
2022-09-20T09:25:37.290Z,96081.19
2022-09-20T09:28:15.699Z,96086.31
2022-09-20T09:30:47.713Z,96079.13
2022-09-20T09:33:28.126Z,96080.25
2022-09-20T09:36:03.383Z,96075.72
2022-09-20T09:38:37.019Z,96070.94
2022-09-20T09:41:25.263Z,96071.50
2022-09-20T09:44:04.936Z,96073.84
2022-09-20T09:46:36.553Z,96074.19
2022-09-20T09:49:12.870Z,96072.06
2022-09-20T09:51:45.033Z,96073.94
2022-09-20T09:54:19.850Z,96069.06
2022-09-20T09:57:12.104Z,96070.69
2022-09-20T10:00:10.771Z,96071.09
2022-09-20T10:03:23.006Z,96074.19
2022-09-20T10:06:14.539Z,96079.19
2022-09-20T10:09:03.238Z,96071.63
2022-09-20T10:11:58.801Z,96069.50
2022-09-20T10:14:53.637Z,96070.94
2022-09-20T10:17:49.840Z,96068.50
2022-09-20T10:20:53.166Z,96068.91
2022-09-20T10:24:07.746Z,96071.31
2022-09-20T10:27:11.147Z,96070.03
2022-09-20T10:30:01.604Z,96073.34
2022-09-20T10:32:59.796Z,96076.84
2022-09-20T10:35:59.067Z,96072.31
2022-09-20T10:38:37.072Z,96066.97
2022-09-20T10:41:45.133Z,96057.69
2022-09-20T10:44:41.421Z,96060.22
2022-09-20T10:47:20.208Z,96062.13
2022-09-20T10:50:03.059Z,96056.84
2022-09-20T10:52:53.201Z,96059.59
2022-09-20T10:55:39.250Z,96062.59
2022-09-20T10:58:54.211Z,96059.66
2022-09-20T11:01:34.519Z,96063.47
2022-09-20T11:04:44.261Z,96063.66
2022-09-20T11:07:20.353Z,96056.66
2022-09-20T11:10:00.710Z,96054.25
2022-09-20T11:12:38.212Z,96060.47
2022-09-20T11:15:21.830Z,96059.72
2022-09-20T11:18:03.758Z,96059.75
2022-09-20T11:20:44.113Z,96061.66
2022-09-20T11:23:20.996Z,96064.38
2022-09-20T11:25:55.508Z,96058.44
2022-09-20T11:28:34.406Z,96061.97
2022-09-20T11:31:12.890Z,96063.03
2022-09-20T11:33:48.141Z,96060.88
2022-09-20T11:36:26.764Z,96061.97
2022-09-20T11:39:03.487Z,96069.56
2022-09-20T11:41:33.731Z,96062.81
2022-09-20T11:44:08.632Z,96063.66
2022-09-20T11:46:47.141Z,96056.63
2022-09-20T11:49:23.688Z,96060.41
2022-09-20T11:52:46.465Z,96053.38
2022-09-20T11:55:42.534Z,96053.91
2022-09-20T11:58:16.710Z,96062.22
2022-09-20T12:00:52.260Z,96053.31
2022-09-20T12:03:35.581Z,96066.25
2022-09-20T12:06:07.601Z,96055.75
2022-09-20T12:08:41.861Z,96057.66
2022-09-20T12:11:16.173Z,96055.22
2022-09-20T12:13:58.735Z,96052.81
2022-09-20T12:16:42.353Z,96054.44
2022-09-20T12:19:14.409Z,96052.81
2022-09-20T12:22:31.814Z,96043.63
2022-09-20T12:25:39.529Z,96037.72
2022-09-20T12:28:17.284Z,96035.56
2022-09-20T12:30:46.687Z,96027.75
2022-09-20T12:33:22.107Z,96029.88
2022-09-20T12:36:17.387Z,96029.31
2022-09-20T12:39:05.373Z,96028.72
2022-09-20T12:41:52.836Z,96012.69
2022-09-20T12:44:37.664Z,96016.22
2022-09-20T12:47:19.001Z,96014.34
2022-09-20T12:50:11.152Z,96009.72
2022-09-20T12:52:58.126Z,96000.41
2022-09-20T12:55:56.304Z,96008.44
2022-09-20T12:58:41.546Z,96008.97
2022-09-20T13:01:38.144Z,96010.00
2022-09-20T13:05:02.915Z,96007.81
2022-09-20T13:07:59.216Z,96009.09
2022-09-20T13:10:35.865Z,96009.38
2022-09-20T13:13:27.947Z,96003.19
2022-09-20T13:15:59.681Z,96002.19
2022-09-20T13:18:29.829Z,96007.81
2022-09-20T13:21:06.424Z,96004.16
2022-09-20T13:23:46.332Z,96013.03
2022-09-20T13:26:16.903Z,96002.88
2022-09-20T13:28:51.512Z,96011.34
2022-09-20T13:31:40.132Z,96009.44
2022-09-20T13:34:21.595Z,96011.81
2022-09-20T13:36:56.407Z,96001.69
2022-09-20T13:39:35.041Z,96001.63
2022-09-20T13:42:11.648Z,96000.09
2022-09-20T13:44:40.915Z,95992.88
2022-09-20T13:47:28.959Z,95995.06
2022-09-20T13:50:03.196Z,95996.88
2022-09-20T13:52:33.625Z,96005.06
2022-09-20T13:55:30.732Z,95993.53
2022-09-20T13:58:03.900Z,96004.25
2022-09-20T14:00:34.785Z,95989.22
2022-09-20T14:03:05.767Z,95989.28
2022-09-20T14:05:35.196Z,95984.16
2022-09-20T14:08:04.339Z,95985.16
2022-09-20T14:10:36.996Z,95983.84
2022-09-20T14:13:08.297Z,95981.53
2022-09-20T14:15:40.250Z,95986.94
2022-09-20T14:18:16.691Z,95997.75
2022-09-20T14:20:46.470Z,95995.97
2022-09-20T14:23:22.804Z,95991.63
2022-09-20T14:26:10.214Z,95996.56
2022-09-20T14:28:39.298Z,95999.00
2022-09-20T14:31:14.509Z,96003.56
2022-09-20T14:33:49.803Z,95999.19
2022-09-20T14:36:24.677Z,95996.25
2022-09-20T14:38:56.666Z,95998.28
2022-09-20T14:41:29.669Z,96005.81
2022-09-20T14:44:00.561Z,96004.00
2022-09-20T14:46:33.793Z,96003.28
2022-09-20T14:49:30.052Z,96005.56
2022-09-20T14:52:33.685Z,96013.06
2022-09-20T14:55:11.384Z,96007.75
2022-09-20T14:57:40.915Z,96003.78
2022-09-20T15:00:15.147Z,96006.63
2022-09-20T15:02:45.727Z,96001.75
2022-09-20T15:05:23.866Z,96007.50
2022-09-20T15:07:54.423Z,96014.56
2022-09-20T15:10:24.032Z,96010.00
2022-09-20T15:12:53.141Z,96014.88
2022-09-20T15:15:22.212Z,96006.38
2022-09-20T15:17:51.436Z,96017.00
2022-09-20T15:20:24.598Z,96021.72
2022-09-20T15:22:53.929Z,96020.72
2022-09-20T15:25:23.515Z,96010.25
2022-09-20T15:27:52.648Z,96014.94
2022-09-20T15:30:22.364Z,96011.22
2022-09-20T15:32:51.691Z,96014.56
2022-09-20T15:35:22.168Z,96023.25
2022-09-20T15:37:51.312Z,96018.16
2022-09-20T15:40:20.443Z,96022.50
2022-09-20T15:42:49.588Z,96024.13
2022-09-20T15:45:19.611Z,96030.63
2022-09-20T15:47:48.718Z,96027.94
2022-09-20T15:50:18.043Z,96030.38
2022-09-20T15:52:50.265Z,96034.44
2022-09-20T15:55:20.243Z,96023.13
2022-09-20T15:57:49.834Z,96034.22
2022-09-20T16:00:19.764Z,96028.00
2022-09-20T16:02:50.697Z,96028.81
2022-09-20T16:05:19.824Z,96029.91
2022-09-20T16:07:50.266Z,96033.16
2022-09-20T16:10:19.371Z,96037.47
2022-09-20T16:12:48.471Z,96038.81
2022-09-20T16:15:17.616Z,96038.53
2022-09-20T16:18:04.445Z,96041.75
2022-09-20T16:20:33.576Z,96040.94
2022-09-20T16:23:04.378Z,96042.84
2022-09-20T16:25:33.538Z,96052.81
2022-09-20T16:28:03.263Z,96047.41
2022-09-20T16:30:32.355Z,96047.91
2022-09-20T16:33:05.381Z,96055.19
2022-09-20T16:35:34.595Z,96049.75
2022-09-20T16:38:05.093Z,96056.75
2022-09-20T16:40:35.047Z,96062.13
2022-09-20T16:43:07.541Z,96060.75
2022-09-20T16:45:37.172Z,96064.47
2022-09-20T16:48:08.618Z,96067.13
2022-09-20T16:50:38.093Z,96072.50
2022-09-20T16:53:08.546Z,96068.94
2022-09-20T16:55:38.564Z,96074.56
2022-09-20T16:58:09.049Z,96078.03
2022-09-20T17:00:38.222Z,96086.09
2022-09-20T17:03:08.207Z,96078.75
2022-09-20T17:05:37.304Z,96085.41
2022-09-20T17:08:08.555Z,96090.22
2022-09-20T17:10:37.735Z,96090.66
2022-09-20T17:13:07.384Z,96091.69
2022-09-20T17:15:37.728Z,96100.50
2022-09-20T17:18:08.794Z,96104.47
2022-09-20T17:20:40.068Z,96115.94
2022-09-20T17:23:10.666Z,96111.03
2022-09-20T17:25:46.172Z,96119.06
2022-09-20T17:28:15.460Z,96132.19
2022-09-20T17:30:44.768Z,96127.00
2022-09-20T17:33:14.748Z,96130.75
2022-09-20T17:35:52.088Z,96130.41
2022-09-20T17:38:22.771Z,96132.56
2022-09-20T17:41:01.503Z,96133.09
2022-09-20T17:43:31.674Z,96136.03
2022-09-20T17:46:10.093Z,96143.53
2022-09-20T17:48:39.924Z,96140.28
2022-09-20T17:51:12.666Z,96150.72
2022-09-20T17:53:43.399Z,96149.59
2022-09-20T17:56:15.308Z,96146.34
2022-09-20T17:58:44.847Z,96155.72
2022-09-20T18:01:16.331Z,96160.78
2022-09-20T18:03:47.757Z,96159.38
2022-09-20T18:06:19.649Z,96154.16
2022-09-20T18:08:51.729Z,96158.66
2022-09-20T18:11:24.898Z,96163.97
2022-09-20T18:13:54.025Z,96168.19
2022-09-20T18:16:24.259Z,96171.38
2022-09-20T18:18:53.616Z,96171.38
2022-09-20T18:21:25.224Z,96171.94
2022-09-20T18:23:57.124Z,96174.97
2022-09-20T18:26:29.977Z,96170.41
2022-09-20T18:29:01.952Z,96177.06
2022-09-20T18:31:33.382Z,96180.00
2022-09-20T18:34:04.079Z,96189.66
2022-09-20T18:36:36.050Z,96187.47
2022-09-20T18:39:07.416Z,96195.19
2022-09-20T18:41:39.749Z,96190.56
2022-09-20T18:44:08.940Z,96192.69
2022-09-20T18:46:39.043Z,96195.59
2022-09-20T18:49:12.732Z,96194.47
2022-09-20T18:51:42.466Z,96206.50
2022-09-20T18:54:13.467Z,96195.16
2022-09-20T18:56:44.620Z,96206.63
2022-09-20T18:59:17.169Z,96198.72
2022-09-20T19:02:10.516Z,96208.31
2022-09-20T19:05:29.362Z,96209.06
2022-09-20T19:08:17.897Z,96212.22
2022-09-20T19:10:53.113Z,96209.72
2022-09-20T19:13:36.262Z,96211.59
2022-09-20T19:16:21.047Z,96218.50
2022-09-20T19:19:41.116Z,96221.09
2022-09-20T19:22:27.244Z,96221.91
2022-09-20T19:25:19.117Z,96228.09
2022-09-20T19:27:52.278Z,96224.34
2022-09-20T19:30:22.971Z,96235.66
2022-09-20T19:32:53.436Z,96233.22
2022-09-20T19:35:33.476Z,96232.41
2022-09-20T19:38:15.394Z,96238.81
2022-09-20T19:40:54.519Z,96238.81
2022-09-20T19:43:54.300Z,96244.69
2022-09-20T19:46:46.884Z,96236.53
2022-09-20T19:49:23.148Z,96245.28
2022-09-20T19:51:57.013Z,96245.81
2022-09-20T19:54:27.688Z,96248.97
2022-09-20T19:56:59.962Z,96251.56
2022-09-20T19:59:32.740Z,96251.94
2022-09-20T20:02:03.495Z,96257.19
2022-09-20T20:04:34.242Z,96255.81
2022-09-20T20:07:15.352Z,96262.72
2022-09-20T20:09:52.183Z,96262.38
2022-09-20T20:14:25.818Z,96260.88
2022-09-20T20:17:14.622Z,96259.81
2022-09-20T20:20:19.826Z,96261.38
2022-09-20T20:23:49.337Z,96271.41
2022-09-20T20:26:23.544Z,96278.53
2022-09-20T20:28:54.696Z,96275.16
2022-09-20T20:31:26.114Z,96277.41
2022-09-20T20:33:57.497Z,96281.59
2022-09-20T20:36:26.932Z,96284.16
2022-09-20T20:38:56.674Z,96285.09
2022-09-20T20:41:27.232Z,96283.91
2022-09-20T20:43:57.109Z,96275.53
2022-09-20T20:46:33.965Z,96280.56
2022-09-20T20:49:05.580Z,96278.59
2022-09-20T20:51:35.012Z,96284.97
2022-09-20T20:54:05.629Z,96295.34
2022-09-20T20:56:35.288Z,96289.41
2022-09-20T20:59:06.105Z,96281.00
2022-09-20T21:01:39.526Z,96291.97
2022-09-20T21:04:11.283Z,96291.38
2022-09-20T21:06:42.290Z,96290.31
2022-09-20T21:09:13.403Z,96288.47
2022-09-20T21:11:44.093Z,96291.38
2022-09-20T21:14:13.952Z,96288.47
2022-09-20T21:16:45.512Z,96287.41
2022-09-20T21:19:16.826Z,96285.09
2022-09-20T21:21:48.378Z,96290.91
2022-09-20T21:24:18.193Z,96289.06
2022-09-20T21:26:48.458Z,96286.03
2022-09-20T21:29:20.288Z,96296.72
2022-09-20T21:31:49.724Z,96289.75
2022-09-20T21:34:20.478Z,96296.38
2022-09-20T21:36:51.008Z,96295.78
2022-09-20T21:39:20.404Z,96297.88
2022-09-20T21:41:49.814Z,96292.78
2022-09-20T21:44:20.464Z,96306.72
2022-09-20T21:46:50.063Z,96307.31
2022-09-20T21:49:20.885Z,96305.34
2022-09-20T21:51:52.018Z,96312.56
2022-09-20T21:54:21.445Z,96309.53
2022-09-20T21:56:52.873Z,96310.22
2022-09-20T21:59:22.842Z,96312.91
2022-09-20T22:01:52.679Z,96316.13
2022-09-20T22:04:23.498Z,96320.53
2022-09-20T22:06:52.905Z,96316.94
2022-09-20T22:09:24.006Z,96309.44
2022-09-20T22:11:53.417Z,96312.22
2022-09-20T22:14:23.161Z,96313.38
2022-09-20T22:16:52.632Z,96315.09
2022-09-20T22:19:24.457Z,96305.28
2022-09-20T22:21:53.836Z,96307.25
2022-09-20T22:24:23.787Z,96310.00
2022-09-20T22:26:53.642Z,96308.47
2022-09-20T22:29:23.028Z,96310.19
2022-09-20T22:31:52.428Z,96308.41
2022-09-20T22:34:24.781Z,96306.63
2022-09-20T22:36:54.244Z,96303.44
2022-09-20T22:39:23.601Z,96305.38
2022-09-20T22:41:53.293Z,96295.78
2022-09-20T22:44:22.675Z,96304.34
2022-09-20T22:46:51.889Z,96310.59
2022-09-20T22:49:22.363Z,96305.50
2022-09-20T22:51:51.510Z,96309.03
2022-09-20T22:54:20.729Z,96301.13
2022-09-20T22:56:49.845Z,96305.47
2022-09-20T22:59:18.964Z,96306.56
2022-09-20T23:01:49.233Z,96300.84
2022-09-20T23:04:20.384Z,96298.84
2022-09-20T23:06:54.770Z,96296.81
2022-09-20T23:09:27.548Z,96302.41
2022-09-20T23:11:57.238Z,96296.91
2022-09-20T23:14:26.668Z,96301.03
2022-09-20T23:16:55.973Z,96301.69
2022-09-20T23:19:25.613Z,96299.44
2022-09-20T23:21:56.353Z,96308.50
2022-09-20T23:24:25.735Z,96306.25
2022-09-20T23:26:55.096Z,96301.34
2022-09-20T23:29:25.621Z,96306.75
2022-09-20T23:31:55.124Z,96304.53
2022-09-20T23:34:24.524Z,96303.31
2022-09-20T23:36:55.276Z,96312.19
2022-09-20T23:39:24.700Z,96307.72
2022-09-20T23:41:54.068Z,96300.59
2022-09-20T23:44:23.454Z,96301.22
2022-09-20T23:46:52.856Z,96305.56
2022-09-20T23:49:22.226Z,96303.75
2022-09-20T23:51:51.641Z,96308.09
2022-09-20T23:54:22.373Z,96311.22
2022-09-20T23:56:51.894Z,96310.22
2022-09-20T23:59:21.261Z,96309.22
